Zaliv Vostok — A8RM6 — position and weather

sailwx.info

Track history (hours):
 
Tides and Currents Weather Stations Pressure Air Temp Water Temp Dewpoint Dewpoint Depression Visibility Wind Speed Wind Dir Waves Ship Positions

Zaliv Vostok

Last reported at 2016-Aug-25 15:27 UTC. Time now 2016-Aug-25 16:41 UTC.
Position N 51°56' E 004°11'.

Length 243 m; draft 8.4 m.

Type: Tanker. MMSI: 636014127.

Date/timePositionNaut miles runAvg speedWind from/ knotsBaromVisibWave heightAir tempDewpointWater temp
2016-Aug-25 15:27N 51°56' E 004°11'0 0.0
2016-Aug-25 14:32N 51°56' E 004°11'0 0.0
2016-Aug-25 13:32N 51°56' E 004°11'0 0.0
2016-Aug-25 12:32N 51°56' E 004°11'0 0.0
2016-Aug-25 11:31N 51°56' E 004°11'0 0.0
2016-Aug-25 10:28N 51°56' E 004°11'0 0.0
2016-Aug-25 09:33N 51°56' E 004°11'0 0.0
2016-Aug-25 08:33N 51°56' E 004°11'0 0.0
2016-Aug-25 07:33N 51°56' E 004°11'0 0.0
2016-Aug-25 06:29N 51°56' E 004°11'0 0.0
2016-Aug-25 04:31N 51°56' E 004°11'0 0.0
2016-Aug-25 03:31N 51°56' E 004°11'0 0.0
2016-Aug-25 02:33N 51°56' E 004°11'0 0.0
2016-Aug-25 01:33N 51°56' E 004°11'0 0.0
2016-Aug-25 00:32N 51°56' E 004°11'0 0.0
2016-Aug-24 23:32N 51°56' E 004°11'0 0.0
2016-Aug-24 22:32N 51°56' E 004°11'0 0.0
2016-Aug-24 21:25N 51°56' E 004°11'0 0.0
2016-Aug-24 20:31N 51°56' E 004°11'0 0.0
2016-Aug-24 19:33N 51°56' E 004°11'0 0.0
2016-Aug-24 18:30N 51°56' E 004°11'0 0.0
2016-Aug-24 17:29N 51°56' E 004°11'0 0.0
2016-Aug-24 16:32N 51°56' E 004°11'0 0.0
2016-Aug-24 15:31N 51°56' E 004°11'0 0.0
2016-Aug-24 14:31N 51°56' E 004°11'0 0.0
2016-Aug-24 13:28N 51°56' E 004°11'0 0.0
2016-Aug-24 12:33N 51°56' E 004°11'0 0.0
2016-Aug-24 11:33N 51°56' E 004°11'0 0.0
2016-Aug-24 10:32N 51°56' E 004°11'0 0.0
2016-Aug-24 09:32N 51°56' E 004°11'0 0.0
2016-Aug-24 08:25N 51°56' E 004°11'0 0.0
2016-Aug-24 07:31N 51°56' E 004°11'0 0.0
2016-Aug-24 06:34N 51°56' E 004°11'0 0.0
2016-Aug-24 04:33N 51°56' E 004°11'0 0.0
2016-Aug-24 03:29N 51°56' E 004°11'0 0.0
2016-Aug-24 02:26N 51°56' E 004°11'0 0.0
2016-Aug-24 01:31N 51°56' E 004°11'0 0.0
2016-Aug-24 00:31N 51°56' E 004°11'0 0.0
2016-Aug-23 23:34N 51°56' E 004°11'1 1.0
2016-Aug-23 22:33N 51°57' E 004°10'5 5.3
2016-Aug-23 21:33N 51°59' E 004°02'1110.7
2016-Aug-23 20:33N 51°60' E 003°45'1413.1
2016-Aug-23 19:31N 51°55' E 003°24'1212.0
2016-Aug-23 18:32N 51°52' E 003°05'1212.4
2016-Aug-23 17:33N 51°48' E 002°47'1312.6
2016-Aug-23 16:33N 51°41' E 002°30'1313.1
2016-Aug-23 15:33N 51°31' E 002°16'1212.4
2016-Aug-23 14:33N 51°20' E 002°08'2210.8
2016-Aug-23 12:33N 51°05' E 001°43'9 9.0
2016-Aug-23 11:33N 50°58' E 001°33'8 8.1
2016-Aug-23 10:30N 50°51' E 001°26'36 9.0
2016-Aug-23 06:32N 50°27' E 000°45'1010.2
2016-Aug-23 05:33N 50°24' E 000°29'1010.2
2016-Aug-23 04:33N 50°21' E 000°14'10 9.9
2016-Aug-23 03:33N 50°17' E 000°00'1111.4
2016-Aug-23 02:33N 50°05' W 000°03'1212.1
2016-Aug-23 01:33N 49°53' W 000°03'1211.8
2016-Aug-23 00:33N 49°42' W 000°04'1312.6
2016-Aug-22 23:33N 49°30' E 000°02'5 4.5
2016-Aug-22 22:32N 49°28' E 000°09'0 0.0
2016-Aug-22 21:31N 49°28' E 000°09'0 0.0
2016-Aug-22 20:31N 49°28' E 000°09'0 0.0
2016-Aug-22 19:33N 49°28' E 000°09'0 0.0
2016-Aug-22 18:33N 49°28' E 000°09'0 0.0
2016-Aug-22 17:33N 49°28' E 000°09'0 0.0
2016-Aug-22 16:32N 49°28' E 000°09'0 0.0
2016-Aug-22 15:32N 49°28' E 000°09'0 0.0
2016-Aug-22 14:31N 49°28' E 000°09'0 0.0
2016-Aug-22 13:31N 49°28' E 000°09'0 0.0
2016-Aug-22 12:33N 49°28' E 000°09'0 0.0
2016-Aug-22 11:33N 49°28' E 000°09'0 0.0
2016-Aug-22 10:33N 49°28' E 000°09'0 0.0
2016-Aug-22 09:32N 49°28' E 000°09'0 0.0
2016-Aug-22 08:32N 49°28' E 000°09'0 0.0
2016-Aug-22 07:31N 49°28' E 000°09'0 0.0
2016-Aug-22 06:31N 49°28' E 000°09'0 0.0
2016-Aug-22 05:33N 49°28' E 000°09'0 0.0
2016-Aug-22 04:33N 49°28' E 000°09'0 0.0
2016-Aug-22 03:33N 49°28' E 000°09'0 0.0
2016-Aug-22 02:32N 49°28' E 000°09'0 0.0
2016-Aug-22 01:32N 49°28' E 000°09'0 0.0
2016-Aug-22 00:31N 49°28' E 000°09'0 0.0
2016-Aug-21 23:31N 49°28' E 000°09'0 0.0
2016-Aug-21 22:33N 49°28' E 000°09'0 0.0
2016-Aug-21 21:33N 49°28' E 000°09'0 0.0
2016-Aug-21 20:32N 49°28' E 000°09'0 0.0
2016-Aug-21 19:32N 49°28' E 000°09'0 0.0
2016-Aug-21 18:32N 49°28' E 000°09'0 0.0
2016-Aug-21 17:31N 49°28' E 000°09'0 0.0
2016-Aug-21 16:31N 49°28' E 000°09'0 0.0
2016-Aug-21 15:33N 49°28' E 000°09'0 0.0
2016-Aug-21 14:33N 49°28' E 000°09'0 0.0
2016-Aug-21 13:32N 49°28' E 000°09'0 0.0
2016-Aug-21 12:32N 49°28' E 000°09'0 0.0
2016-Aug-21 11:32N 49°28' E 000°09'0 0.0
2016-Aug-21 10:31N 49°28' E 000°09'0 0.0
2016-Aug-21 09:31N 49°28' E 000°09'0 0.0
2016-Aug-21 08:33N 49°28' E 000°09'0 0.0
2016-Aug-21 07:33N 49°28' E 000°09'0 0.0
2016-Aug-21 06:33N 49°28' E 000°09'0 0.0
2016-Aug-21 05:32N 49°28' E 000°09'0 0.0
2016-Aug-21 04:32N 49°28' E 000°09'0 0.0
2016-Aug-21 03:31N 49°28' E 000°09'0 0.0
2016-Aug-21 02:31N 49°28' E 000°09'0 0.0
2016-Aug-21 01:33N 49°28' E 000°09'0 0.0
2016-Aug-21 00:33N 49°28' E 000°09'0 0.0
2016-Aug-20 23:32N 49°28' E 000°09'0 0.0
2016-Aug-20 22:32N 49°28' E 000°09'0 0.0
2016-Aug-20 21:31N 49°28' E 000°09'0 0.0
2016-Aug-20 20:31N 49°28' E 000°09'0 0.0
2016-Aug-20 19:31N 49°28' E 000°09'0 0.0
2016-Aug-20 18:33N 49°28' E 000°09'0 0.0
2016-Aug-20 17:33N 49°28' E 000°09'0 0.0
2016-Aug-20 16:32N 49°28' E 000°09'0 0.0
2016-Aug-20 15:32N 49°28' E 000°09'0 0.0
2016-Aug-20 14:32N 49°28' E 000°09'0 0.0
2016-Aug-20 13:31N 49°28' E 000°09'0 0.0
2016-Aug-20 12:31N 49°28' E 000°09'0 0.0
2016-Aug-20 11:33N 49°28' E 000°09'0 0.0
2016-Aug-20 10:33N 49°28' E 000°09'0 0.0
2016-Aug-20 09:32N 49°28' E 000°09'0 0.0
2016-Aug-20 08:32N 49°28' E 000°09'0 0.0
2016-Aug-20 07:31N 49°28' E 000°09'0 0.0
2016-Aug-20 06:31N 49°28' E 000°09'0 0.0
2016-Aug-20 05:31N 49°28' E 000°09'0 0.0
2016-Aug-20 04:33N 49°28' E 000°09'0 0.0
2016-Aug-20 03:33N 49°28' E 000°09'0 0.0
2016-Aug-20 02:32N 49°28' E 000°09'0 0.0
2016-Aug-20 01:32N 49°28' E 000°09'0 0.0
2016-Aug-20 00:31N 49°28' E 000°09'0 0.0
2016-Aug-19 23:31N 49°28' E 000°09'0 0.4
2016-Aug-19 22:33N 49°28' E 000°10'0 0.0
2016-Aug-19 21:31N 49°28' E 000°10'0 0.0
2016-Aug-19 20:30N 49°28' E 000°10'0 0.0
2016-Aug-19 19:33N 49°28' E 000°10'0 0.0
2016-Aug-19 18:33N 49°28' E 000°10'0 0.0
2016-Aug-19 17:32N 49°28' E 000°10'0 0.0
2016-Aug-19 16:32N 49°28' E 000°10'0 0.0
2016-Aug-19 15:31N 49°28' E 000°10'0 0.0
2016-Aug-19 14:31N 49°28' E 000°10'0 0.0
2016-Aug-19 13:33N 49°28' E 000°10'0 0.0
2016-Aug-19 12:33N 49°28' E 000°10'0 0.0
2016-Aug-19 11:33N 49°28' E 000°10'0 0.0
2016-Aug-19 10:32N 49°28' E 000°10'0 0.0
2016-Aug-19 09:32N 49°28' E 000°10'0 0.0
2016-Aug-19 08:31N 49°28' E 000°10'0 0.0
2016-Aug-19 07:31N 49°28' E 000°10'0 0.0
2016-Aug-19 06:33N 49°28' E 000°10'0 0.0
2016-Aug-19 05:33N 49°28' E 000°10'0 0.0
2016-Aug-19 04:30N 49°28' E 000°10'0 0.0
2016-Aug-19 03:32N 49°28' E 000°10'0 0.0
2016-Aug-19 02:32N 49°28' E 000°10'0 0.0
2016-Aug-19 01:31N 49°28' E 000°10'0 0.0
2016-Aug-19 00:31N 49°28' E 000°10'0 0.0
2016-Aug-18 23:33N 49°28' E 000°10'0 0.0
2016-Aug-18 22:33N 49°28' E 000°10'0 0.0
2016-Aug-18 21:33N 49°28' E 000°10'0 0.0
2016-Aug-18 20:32N 49°28' E 000°10'0 0.0
2016-Aug-18 19:32N 49°28' E 000°10'0 0.0
2016-Aug-18 18:31N 49°28' E 000°10'0 0.0
2016-Aug-18 17:31N 49°28' E 000°10'0 0.0
2016-Aug-18 16:33N 49°28' E 000°10'0 0.0
2016-Aug-18 15:33N 49°28' E 000°10'0 0.3
2016-Aug-18 14:34N 49°28' E 000°09'1 1.0
2016-Aug-18 13:33N 49°28' E 000°08'0 0.0
2016-Aug-18 12:33N 49°28' E 000°08'0 0.0
2016-Aug-18 11:33N 49°28' E 000°08'0 0.0
2016-Aug-18 10:32N 49°28' E 000°08'0 0.0
2016-Aug-18 09:32N 49°28' E 000°08'0 0.0
2016-Aug-18 08:31N 49°28' E 000°08'0 0.0
2016-Aug-18 07:31N 49°28' E 000°08'0 0.0
2016-Aug-18 06:33N 49°28' E 000°08'0 0.0
2016-Aug-18 05:33N 49°28' E 000°08'0 0.0
2016-Aug-18 04:33N 49°28' E 000°08'0 0.0
2016-Aug-18 03:32N 49°28' E 000°08'0 0.0
2016-Aug-18 02:32N 49°28' E 000°08'0 0.0
2016-Aug-18 01:31N 49°28' E 000°08'0 0.0
2016-Aug-18 00:31N 49°28' E 000°08'0 0.0
2016-Aug-17 23:33N 49°28' E 000°08'0 0.0
2016-Aug-17 22:33N 49°28' E 000°08'0 0.0
2016-Aug-17 21:32N 49°28' E 000°08'0 0.0
2016-Aug-17 20:32N 49°28' E 000°08'0 0.0
2016-Aug-17 19:32N 49°28' E 000°08'0 0.0
2016-Aug-17 18:31N 49°28' E 000°08'0 0.0
2016-Aug-17 17:31N 49°28' E 000°08'0 0.0
2016-Aug-17 16:33N 49°28' E 000°08'0 0.0
2016-Aug-17 15:33N 49°28' E 000°08'0 0.0
2016-Aug-17 14:32N 49°28' E 000°08'0 0.0
2016-Aug-17 13:32N 49°28' E 000°08'0 0.0
2016-Aug-17 12:32N 49°28' E 000°08'0 0.0
2016-Aug-17 11:31N 49°28' E 000°08'0 0.0
2016-Aug-17 10:31N 49°28' E 000°08'0 0.0
2016-Aug-17 09:33N 49°28' E 000°08'0 0.0
2016-Aug-17 08:33N 49°28' E 000°08'0 0.0
2016-Aug-17 07:32N 49°28' E 000°08'0 0.0
2016-Aug-17 06:32N 49°28' E 000°08'0 0.0
2016-Aug-17 05:32N 49°28' E 000°08'0 0.0
2016-Aug-17 04:31N 49°28' E 000°08'0 0.0
2016-Aug-17 03:31N 49°28' E 000°08'0 0.0
2016-Aug-17 02:33N 49°28' E 000°08'0 0.0
2016-Aug-17 01:33N 49°28' E 000°08'0 0.0
2016-Aug-17 00:32N 49°28' E 000°08'0 0.0
2016-Aug-16 23:32N 49°28' E 000°08'0 0.0
2016-Aug-16 22:32N 49°28' E 000°08'0 0.0
2016-Aug-16 21:31N 49°28' E 000°08'0 0.0
2016-Aug-16 20:31N 49°28' E 000°08'0 0.1
2016-Aug-16 19:33N 49°28' E 000°08'5 5.1
2016-Aug-16 18:33N 49°30' E 000°00'1111.4
2016-Aug-16 17:33N 49°35' W 000°15'1 1.4
2016-Aug-16 16:32N 49°36' W 000°17'0 0.0
2016-Aug-16 15:28N 49°36' W 000°17'0 0.0
2016-Aug-16 14:31N 49°36' W 000°17'0 0.0
2016-Aug-16 13:31N 49°36' W 000°17'0 0.1
2016-Aug-16 12:33N 49°36' W 000°17'4 4.1
2016-Aug-16 11:33N 49°36' W 000°24'1010.3
2016-Aug-16 10:33N 49°37' W 000°39'9 9.3
2016-Aug-16 09:33N 49°41' W 000°52'1211.9
2016-Aug-16 08:34N 49°49' W 001°06'1414.3
2016-Aug-16 07:34N 49°51' W 001°28'4615.2
2016-Aug-16 04:33N 49°52' W 002°39'1414.2
2016-Aug-16 03:34N 49°46' W 002°59'1413.8
2016-Aug-16 02:34N 49°39' W 003°18'1413.9
2016-Aug-16 01:33N 49°32' W 003°37'1513.7
2016-Aug-16 00:26N 49°23' W 003°55'1413.4
2016-Aug-15 23:26N 49°14' W 004°11'7 7.8
2016-Aug-15 22:33N 49°10' W 004°18'1 1.1
2016-Aug-15 21:31N 49°10' W 004°17'2 1.5
2016-Aug-15 20:24N 49°10' W 004°14'1 1.0
2016-Aug-15 19:33N 49°11' W 004°15'10 9.6
2016-Aug-15 18:32N 49°10' W 004°30'1211.8
2016-Aug-15 17:33N 49°05' W 004°46'1313.2
2016-Aug-15 16:33N 48°58' W 005°04'1313.4
2016-Aug-15 15:33N 48°52' W 005°22'  
Track history (hours):
 
Tides and Currents Weather Stations Pressure Air Temp Water Temp Dewpoint Dewpoint Depression Visibility Wind Speed Wind Dir Waves Ship Positions

Zaliv Vostok

Last reported at 2016-Aug-25 15:27 UTC. Time now 2016-Aug-25 16:41 UTC.
Position N 51°56' E 004°11'.

Length 243 m; draft 8.4 m.

Type: Tanker. MMSI: 636014127.

Date/timePositionNaut miles runAvg speedWind from/ knotsBaromVisibWave heightAir tempDewpointWater temp
2016-Aug-25 15:27N 51°56' E 004°11'0 0.0
2016-Aug-25 14:32N 51°56' E 004°11'0 0.0
2016-Aug-25 13:32N 51°56' E 004°11'0 0.0
2016-Aug-25 12:32N 51°56' E 004°11'0 0.0
2016-Aug-25 11:31N 51°56' E 004°11'0 0.0
2016-Aug-25 10:28N 51°56' E 004°11'0 0.0
2016-Aug-25 09:33N 51°56' E 004°11'0 0.0
2016-Aug-25 08:33N 51°56' E 004°11'0 0.0
2016-Aug-25 07:33N 51°56' E 004°11'0 0.0
2016-Aug-25 06:29N 51°56' E 004°11'0 0.0
2016-Aug-25 04:31N 51°56' E 004°11'0 0.0
2016-Aug-25 03:31N 51°56' E 004°11'0 0.0
2016-Aug-25 02:33N 51°56' E 004°11'0 0.0
2016-Aug-25 01:33N 51°56' E 004°11'0 0.0
2016-Aug-25 00:32N 51°56' E 004°11'0 0.0
2016-Aug-24 23:32N 51°56' E 004°11'0 0.0
2016-Aug-24 22:32N 51°56' E 004°11'0 0.0
2016-Aug-24 21:25N 51°56' E 004°11'0 0.0
2016-Aug-24 20:31N 51°56' E 004°11'0 0.0
2016-Aug-24 19:33N 51°56' E 004°11'0 0.0
2016-Aug-24 18:30N 51°56' E 004°11'0 0.0
2016-Aug-24 17:29N 51°56' E 004°11'0 0.0
2016-Aug-24 16:32N 51°56' E 004°11'0 0.0
2016-Aug-24 15:31N 51°56' E 004°11'0 0.0
2016-Aug-24 14:31N 51°56' E 004°11'0 0.0
2016-Aug-24 13:28N 51°56' E 004°11'0 0.0
2016-Aug-24 12:33N 51°56' E 004°11'0 0.0
2016-Aug-24 11:33N 51°56' E 004°11'0 0.0
2016-Aug-24 10:32N 51°56' E 004°11'0 0.0
2016-Aug-24 09:32N 51°56' E 004°11'0 0.0
2016-Aug-24 08:25N 51°56' E 004°11'0 0.0
2016-Aug-24 07:31N 51°56' E 004°11'0 0.0
2016-Aug-24 06:34N 51°56' E 004°11'0 0.0
2016-Aug-24 04:33N 51°56' E 004°11'0 0.0
2016-Aug-24 03:29N 51°56' E 004°11'0 0.0
2016-Aug-24 02:26N 51°56' E 004°11'0 0.0
2016-Aug-24 01:31N 51°56' E 004°11'0 0.0
2016-Aug-24 00:31N 51°56' E 004°11'0 0.0
2016-Aug-23 23:34N 51°56' E 004°11'1 1.0
2016-Aug-23 22:33N 51°57' E 004°10'5 5.3
2016-Aug-23 21:33N 51°59' E 004°02'1110.7
2016-Aug-23 20:33N 51°60' E 003°45'1413.1
2016-Aug-23 19:31N 51°55' E 003°24'1212.0
2016-Aug-23 18:32N 51°52' E 003°05'1212.4
2016-Aug-23 17:33N 51°48' E 002°47'1312.6
2016-Aug-23 16:33N 51°41' E 002°30'1313.1
2016-Aug-23 15:33N 51°31' E 002°16'1212.4
2016-Aug-23 14:33N 51°20' E 002°08'2210.8
2016-Aug-23 12:33N 51°05' E 001°43'9 9.0
2016-Aug-23 11:33N 50°58' E 001°33'8 8.1
2016-Aug-23 10:30N 50°51' E 001°26'36 9.0
2016-Aug-23 06:32N 50°27' E 000°45'1010.2
2016-Aug-23 05:33N 50°24' E 000°29'1010.2
2016-Aug-23 04:33N 50°21' E 000°14'10 9.9
2016-Aug-23 03:33N 50°17' E 000°00'1111.4
2016-Aug-23 02:33N 50°05' W 000°03'1212.1
2016-Aug-23 01:33N 49°53' W 000°03'1211.8
2016-Aug-23 00:33N 49°42' W 000°04'1312.6
2016-Aug-22 23:33N 49°30' E 000°02'5 4.5
2016-Aug-22 22:32N 49°28' E 000°09'0 0.0
2016-Aug-22 21:31N 49°28' E 000°09'0 0.0
2016-Aug-22 20:31N 49°28' E 000°09'0 0.0
2016-Aug-22 19:33N 49°28' E 000°09'0 0.0
2016-Aug-22 18:33N 49°28' E 000°09'0 0.0
2016-Aug-22 17:33N 49°28' E 000°09'0 0.0
2016-Aug-22 16:32N 49°28' E 000°09'0 0.0
2016-Aug-22 15:32N 49°28' E 000°09'0 0.0
2016-Aug-22 14:31N 49°28' E 000°09'0 0.0
2016-Aug-22 13:31N 49°28' E 000°09'0 0.0
2016-Aug-22 12:33N 49°28' E 000°09'0 0.0
2016-Aug-22 11:33N 49°28' E 000°09'0 0.0
2016-Aug-22 10:33N 49°28' E 000°09'0 0.0
2016-Aug-22 09:32N 49°28' E 000°09'0 0.0
2016-Aug-22 08:32N 49°28' E 000°09'0 0.0
2016-Aug-22 07:31N 49°28' E 000°09'0 0.0
2016-Aug-22 06:31N 49°28' E 000°09'0 0.0
2016-Aug-22 05:33N 49°28' E 000°09'0 0.0
2016-Aug-22 04:33N 49°28' E 000°09'0 0.0
2016-Aug-22 03:33N 49°28' E 000°09'0 0.0
2016-Aug-22 02:32N 49°28' E 000°09'0 0.0
2016-Aug-22 01:32N 49°28' E 000°09'0 0.0
2016-Aug-22 00:31N 49°28' E 000°09'0 0.0
2016-Aug-21 23:31N 49°28' E 000°09'0 0.0
2016-Aug-21 22:33N 49°28' E 000°09'0 0.0
2016-Aug-21 21:33N 49°28' E 000°09'0 0.0
2016-Aug-21 20:32N 49°28' E 000°09'0 0.0
2016-Aug-21 19:32N 49°28' E 000°09'0 0.0
2016-Aug-21 18:32N 49°28' E 000°09'0 0.0
2016-Aug-21 17:31N 49°28' E 000°09'0 0.0
2016-Aug-21 16:31N 49°28' E 000°09'0 0.0
2016-Aug-21 15:33N 49°28' E 000°09'0 0.0
2016-Aug-21 14:33N 49°28' E 000°09'0 0.0
2016-Aug-21 13:32N 49°28' E 000°09'0 0.0
2016-Aug-21 12:32N 49°28' E 000°09'0 0.0
2016-Aug-21 11:32N 49°28' E 000°09'0 0.0
2016-Aug-21 10:31N 49°28' E 000°09'0 0.0
2016-Aug-21 09:31N 49°28' E 000°09'0 0.0
2016-Aug-21 08:33N 49°28' E 000°09'0 0.0
2016-Aug-21 07:33N 49°28' E 000°09'0 0.0
2016-Aug-21 06:33N 49°28' E 000°09'0 0.0
2016-Aug-21 05:32N 49°28' E 000°09'0 0.0
2016-Aug-21 04:32N 49°28' E 000°09'0 0.0
2016-Aug-21 03:31N 49°28' E 000°09'0 0.0
2016-Aug-21 02:31N 49°28' E 000°09'0 0.0
2016-Aug-21 01:33N 49°28' E 000°09'0 0.0
2016-Aug-21 00:33N 49°28' E 000°09'0 0.0
2016-Aug-20 23:32N 49°28' E 000°09'0 0.0
2016-Aug-20 22:32N 49°28' E 000°09'0 0.0
2016-Aug-20 21:31N 49°28' E 000°09'0 0.0
2016-Aug-20 20:31N 49°28' E 000°09'0 0.0
2016-Aug-20 19:31N 49°28' E 000°09'0 0.0
2016-Aug-20 18:33N 49°28' E 000°09'0 0.0
2016-Aug-20 17:33N 49°28' E 000°09'0 0.0
2016-Aug-20 16:32N 49°28' E 000°09'0 0.0
2016-Aug-20 15:32N 49°28' E 000°09'0 0.0
2016-Aug-20 14:32N 49°28' E 000°09'0 0.0
2016-Aug-20 13:31N 49°28' E 000°09'0 0.0
2016-Aug-20 12:31N 49°28' E 000°09'0 0.0
2016-Aug-20 11:33N 49°28' E 000°09'0 0.0
2016-Aug-20 10:33N 49°28' E 000°09'0 0.0
2016-Aug-20 09:32N 49°28' E 000°09'0 0.0
2016-Aug-20 08:32N 49°28' E 000°09'0 0.0
2016-Aug-20 07:31N 49°28' E 000°09'0 0.0
2016-Aug-20 06:31N 49°28' E 000°09'0 0.0
2016-Aug-20 05:31N 49°28' E 000°09'0 0.0
2016-Aug-20 04:33N 49°28' E 000°09'0 0.0
2016-Aug-20 03:33N 49°28' E 000°09'0 0.0
2016-Aug-20 02:32N 49°28' E 000°09'0 0.0
2016-Aug-20 01:32N 49°28' E 000°09'0 0.0
2016-Aug-20 00:31N 49°28' E 000°09'0 0.0
2016-Aug-19 23:31N 49°28' E 000°09'0 0.4
2016-Aug-19 22:33N 49°28' E 000°10'0 0.0
2016-Aug-19 21:31N 49°28' E 000°10'0 0.0
2016-Aug-19 20:30N 49°28' E 000°10'0 0.0
2016-Aug-19 19:33N 49°28' E 000°10'0 0.0
2016-Aug-19 18:33N 49°28' E 000°10'0 0.0
2016-Aug-19 17:32N 49°28' E 000°10'0 0.0
2016-Aug-19 16:32N 49°28' E 000°10'0 0.0
2016-Aug-19 15:31N 49°28' E 000°10'0 0.0
2016-Aug-19 14:31N 49°28' E 000°10'0 0.0
2016-Aug-19 13:33N 49°28' E 000°10'0 0.0
2016-Aug-19 12:33N 49°28' E 000°10'0 0.0
2016-Aug-19 11:33N 49°28' E 000°10'0 0.0
2016-Aug-19 10:32N 49°28' E 000°10'0 0.0
2016-Aug-19 09:32N 49°28' E 000°10'0 0.0
2016-Aug-19 08:31N 49°28' E 000°10'0 0.0
2016-Aug-19 07:31N 49°28' E 000°10'0 0.0
2016-Aug-19 06:33N 49°28' E 000°10'0 0.0
2016-Aug-19 05:33N 49°28' E 000°10'0 0.0
2016-Aug-19 04:30N 49°28' E 000°10'0 0.0
2016-Aug-19 03:32N 49°28' E 000°10'0 0.0
2016-Aug-19 02:32N 49°28' E 000°10'0 0.0
2016-Aug-19 01:31N 49°28' E 000°10'0 0.0
2016-Aug-19 00:31N 49°28' E 000°10'0 0.0
2016-Aug-18 23:33N 49°28' E 000°10'0 0.0
2016-Aug-18 22:33N 49°28' E 000°10'0 0.0
2016-Aug-18 21:33N 49°28' E 000°10'0 0.0
2016-Aug-18 20:32N 49°28' E 000°10'0 0.0
2016-Aug-18 19:32N 49°28' E 000°10'0 0.0
2016-Aug-18 18:31N 49°28' E 000°10'0 0.0
2016-Aug-18 17:31N 49°28' E 000°10'0 0.0
2016-Aug-18 16:33N 49°28' E 000°10'0 0.0
2016-Aug-18 15:33N 49°28' E 000°10'0 0.3
2016-Aug-18 14:34N 49°28' E 000°09'1 1.0
2016-Aug-18 13:33N 49°28' E 000°08'0 0.0
2016-Aug-18 12:33N 49°28' E 000°08'0 0.0
2016-Aug-18 11:33N 49°28' E 000°08'0 0.0
2016-Aug-18 10:32N 49°28' E 000°08'0 0.0
2016-Aug-18 09:32N 49°28' E 000°08'0 0.0
2016-Aug-18 08:31N 49°28' E 000°08'0 0.0
2016-Aug-18 07:31N 49°28' E 000°08'0 0.0
2016-Aug-18 06:33N 49°28' E 000°08'0 0.0
2016-Aug-18 05:33N 49°28' E 000°08'0 0.0
2016-Aug-18 04:33N 49°28' E 000°08'0 0.0
2016-Aug-18 03:32N 49°28' E 000°08'0 0.0
2016-Aug-18 02:32N 49°28' E 000°08'0 0.0
2016-Aug-18 01:31N 49°28' E 000°08'0 0.0
2016-Aug-18 00:31N 49°28' E 000°08'0 0.0
2016-Aug-17 23:33N 49°28' E 000°08'0 0.0
2016-Aug-17 22:33N 49°28' E 000°08'0 0.0
2016-Aug-17 21:32N 49°28' E 000°08'0 0.0
2016-Aug-17 20:32N 49°28' E 000°08'0 0.0
2016-Aug-17 19:32N 49°28' E 000°08'0 0.0
2016-Aug-17 18:31N 49°28' E 000°08'0 0.0
2016-Aug-17 17:31N 49°28' E 000°08'0 0.0
2016-Aug-17 16:33N 49°28' E 000°08'0 0.0
2016-Aug-17 15:33N 49°28' E 000°08'0 0.0
2016-Aug-17 14:32N 49°28' E 000°08'0 0.0
2016-Aug-17 13:32N 49°28' E 000°08'0 0.0
2016-Aug-17 12:32N 49°28' E 000°08'0 0.0
2016-Aug-17 11:31N 49°28' E 000°08'0 0.0
2016-Aug-17 10:31N 49°28' E 000°08'0 0.0
2016-Aug-17 09:33N 49°28' E 000°08'0 0.0
2016-Aug-17 08:33N 49°28' E 000°08'0 0.0
2016-Aug-17 07:32N 49°28' E 000°08'0 0.0
2016-Aug-17 06:32N 49°28' E 000°08'0 0.0
2016-Aug-17 05:32N 49°28' E 000°08'0 0.0
2016-Aug-17 04:31N 49°28' E 000°08'0 0.0
2016-Aug-17 03:31N 49°28' E 000°08'0 0.0
2016-Aug-17 02:33N 49°28' E 000°08'0 0.0
2016-Aug-17 01:33N 49°28' E 000°08'0 0.0
2016-Aug-17 00:32N 49°28' E 000°08'0 0.0
2016-Aug-16 23:32N 49°28' E 000°08'0 0.0
2016-Aug-16 22:32N 49°28' E 000°08'0 0.0
2016-Aug-16 21:31N 49°28' E 000°08'0 0.0
2016-Aug-16 20:31N 49°28' E 000°08'0 0.1
2016-Aug-16 19:33N 49°28' E 000°08'5 5.1
2016-Aug-16 18:33N 49°30' E 000°00'1111.4
2016-Aug-16 17:33N 49°35' W 000°15'1 1.4
2016-Aug-16 16:32N 49°36' W 000°17'0 0.0
2016-Aug-16 15:28N 49°36' W 000°17'0 0.0
2016-Aug-16 14:31N 49°36' W 000°17'0 0.0
2016-Aug-16 13:31N 49°36' W 000°17'0 0.1
2016-Aug-16 12:33N 49°36' W 000°17'4 4.1
2016-Aug-16 11:33N 49°36' W 000°24'1010.3
2016-Aug-16 10:33N 49°37' W 000°39'9 9.3
2016-Aug-16 09:33N 49°41' W 000°52'1211.9
2016-Aug-16 08:34N 49°49' W 001°06'1414.3
2016-Aug-16 07:34N 49°51' W 001°28'4615.2
2016-Aug-16 04:33N 49°52' W 002°39'1414.2
2016-Aug-16 03:34N 49°46' W 002°59'1413.8
2016-Aug-16 02:34N 49°39' W 003°18'1413.9
2016-Aug-16 01:33N 49°32' W 003°37'1513.7
2016-Aug-16 00:26N 49°23' W 003°55'1413.4
2016-Aug-15 23:26N 49°14' W 004°11'7 7.8
2016-Aug-15 22:33N 49°10' W 004°18'1 1.1
2016-Aug-15 21:31N 49°10' W 004°17'2 1.5
2016-Aug-15 20:24N 49°10' W 004°14'1 1.0
2016-Aug-15 19:33N 49°11' W 004°15'10 9.6
2016-Aug-15 18:32N 49°10' W 004°30'1211.8
2016-Aug-15 17:33N 49°05' W 004°46'1313.2
2016-Aug-15 16:33N 48°58' W 005°04'1313.4
2016-Aug-15 15:33N 48°52' W 005°22'  

Dump ship's entire track history